sensor_id;sensor_type;location;lat;lon;timestamp;pressure;altitude;pressure_sealevel;temperature;humidity
250;BME280;109;19.806;-70.704;2022-11-20T00:00:15;101541.09;;;24.29;67.60
250;BME280;109;19.806;-70.704;2022-11-20T00:02:42;101549.19;;;24.27;67.54
250;BME280;109;19.806;-70.704;2022-11-20T00:05:08;101546.69;;;24.23;67.68
250;BME280;109;19.806;-70.704;2022-11-20T00:07:35;101543.06;;;24.24;67.52
250;BME280;109;19.806;-70.704;2022-11-20T00:10:01;101543.84;;;24.27;67.25
250;BME280;109;19.806;-70.704;2022-11-20T00:12:28;101550.19;;;24.25;67.22
250;BME280;109;19.806;-70.704;2022-11-20T00:14:54;101554.97;;;24.38;67.38
250;BME280;109;19.806;-70.704;2022-11-20T00:17:21;101549.81;;;24.34;67.08
250;BME280;109;19.806;-70.704;2022-11-20T00:19:47;101555.41;;;24.28;66.95
250;BME280;109;19.806;-70.704;2022-11-20T00:22:14;101556.16;;;24.31;67.05
250;BME280;109;19.806;-70.704;2022-11-20T00:24:40;101555.41;;;24.28;66.80
250;BME280;109;19.806;-70.704;2022-11-20T00:27:07;101558.66;;;24.36;66.73
250;BME280;109;19.806;-70.704;2022-11-20T00:29:33;101569.13;;;24.42;66.66
250;BME280;109;19.806;-70.704;2022-11-20T00:31:59;101568.97;;;24.45;66.59
250;BME280;109;19.806;-70.704;2022-11-20T00:34:27;101570.06;;;24.41;66.26
250;BME280;109;19.806;-70.704;2022-11-20T00:36:53;101573.41;;;24.46;66.29
250;BME280;109;19.806;-70.704;2022-11-20T00:39:20;101577.00;;;24.45;66.66
250;BME280;109;19.806;-70.704;2022-11-20T00:41:46;101575.78;;;24.32;66.39
250;BME280;109;19.806;-70.704;2022-11-20T00:44:13;101579.94;;;24.39;66.56
250;BME280;109;19.806;-70.704;2022-11-20T00:46:39;101585.84;;;24.47;66.74
250;BME280;109;19.806;-70.704;2022-11-20T00:49:05;101584.56;;;24.57;66.60
250;BME280;109;19.806;-70.704;2022-11-20T00:51:32;101593.53;;;24.56;66.13
250;BME280;109;19.806;-70.704;2022-11-20T00:53:58;101593.00;;;24.47;66.05
250;BME280;109;19.806;-70.704;2022-11-20T00:56:32;101597.47;;;24.46;66.05
250;BME280;109;19.806;-70.704;2022-11-20T00:59:00;101602.91;;;24.45;65.99
250;BME280;109;19.806;-70.704;2022-11-20T01:01:34;101594.91;;;24.45;65.74
250;BME280;109;19.806;-70.704;2022-11-20T01:04:00;101607.25;;;24.47;65.96
250;BME280;109;19.806;-70.704;2022-11-20T01:06:36;101607.19;;;24.49;65.84
250;BME280;109;19.806;-70.704;2022-11-20T01:09:09;101600.97;;;24.48;65.61
250;BME280;109;19.806;-70.704;2022-11-20T01:11:44;101601.09;;;24.45;65.86
250;BME280;109;19.806;-70.704;2022-11-20T01:14:17;101593.75;;;24.50;65.43
250;BME280;109;19.806;-70.704;2022-11-20T01:16:51;101602.56;;;24.54;65.74
250;BME280;109;19.806;-70.704;2022-11-20T01:19:21;101607.69;;;24.58;65.72
250;BME280;109;19.806;-70.704;2022-11-20T01:21:54;101605.78;;;24.62;65.38
250;BME280;109;19.806;-70.704;2022-11-20T01:24:22;101599.00;;;24.53;65.39
250;BME280;109;19.806;-70.704;2022-11-20T01:26:55;101596.38;;;24.52;65.29
250;BME280;109;19.806;-70.704;2022-11-20T01:29:23;101592.06;;;24.48;65.20
250;BME280;109;19.806;-70.704;2022-11-20T01:31:56;101587.59;;;24.48;65.32
250;BME280;109;19.806;-70.704;2022-11-20T01:34:22;101591.91;;;24.52;65.08
250;BME280;109;19.806;-70.704;2022-11-20T01:36:56;101587.47;;;24.51;65.18
250;BME280;109;19.806;-70.704;2022-11-20T01:39:25;101593.31;;;24.61;64.94
250;BME280;109;19.806;-70.704;2022-11-20T01:42:05;101597.25;;;24.52;64.98
250;BME280;109;19.806;-70.704;2022-11-20T01:48:28;101599.38;;;24.44;65.08
250;BME280;109;19.806;-70.704;2022-11-20T01:51:04;101602.59;;;24.52;64.63
250;BME280;109;19.806;-70.704;2022-11-20T01:53:46;101601.78;;;24.50;64.65
250;BME280;109;19.806;-70.704;2022-11-20T01:56:14;101607.66;;;24.60;64.70
250;BME280;109;19.806;-70.704;2022-11-20T01:58:57;101618.59;;;24.54;64.23
250;BME280;109;19.806;-70.704;2022-11-20T02:01:31;101622.50;;;24.45;64.53
250;BME280;109;19.806;-70.704;2022-11-20T02:04:13;101611.59;;;24.28;64.29
250;BME280;109;19.806;-70.704;2022-11-20T02:09:24;101610.56;;;24.07;63.93
250;BME280;109;19.806;-70.704;2022-11-20T02:11:50;101608.75;;;24.08;63.64
250;BME280;109;19.806;-70.704;2022-11-20T02:14:31;101613.00;;;24.13;63.42
250;BME280;109;19.806;-70.704;2022-11-20T02:16:57;101609.13;;;24.22;63.74
250;BME280;109;19.806;-70.704;2022-11-20T02:19:40;101610.47;;;24.33;64.05
250;BME280;109;19.806;-70.704;2022-11-20T02:22:23;101611.94;;;24.19;64.48
250;BME280;109;19.806;-70.704;2022-11-20T02:25:05;101616.34;;;24.20;64.73
250;BME280;109;19.806;-70.704;2022-11-20T02:27:47;101607.38;;;24.21;64.81
250;BME280;109;19.806;-70.704;2022-11-20T02:30:13;101608.81;;;24.31;64.85
250;BME280;109;19.806;-70.704;2022-11-20T02:32:53;101611.22;;;24.37;64.80
250;BME280;109;19.806;-70.704;2022-11-20T02:38:09;101604.84;;;24.41;65.02
250;BME280;109;19.806;-70.704;2022-11-20T02:40:43;101602.06;;;24.44;64.76
250;BME280;109;19.806;-70.704;2022-11-20T02:43:29;101602.91;;;24.45;64.74
250;BME280;109;19.806;-70.704;2022-11-20T02:46:03;101605.78;;;24.40;64.95
250;BME280;109;19.806;-70.704;2022-11-20T02:48:43;101600.47;;;24.38;64.52
250;BME280;109;19.806;-70.704;2022-11-20T02:51:09;101612.97;;;24.38;64.33
250;BME280;109;19.806;-70.704;2022-11-20T02:53:50;101612.00;;;24.40;64.26
250;BME280;109;19.806;-70.704;2022-11-20T02:56:16;101604.72;;;24.44;64.20
250;BME280;109;19.806;-70.704;2022-11-20T02:58:57;101613.44;;;24.49;63.86
250;BME280;109;19.806;-70.704;2022-11-20T03:01:23;101616.59;;;24.37;63.42
250;BME280;109;19.806;-70.704;2022-11-20T03:04:03;101610.41;;;24.35;63.15
250;BME280;109;19.806;-70.704;2022-11-20T03:06:29;101606.03;;;24.32;63.53
250;BME280;109;19.806;-70.704;2022-11-20T03:09:10;101602.28;;;24.38;63.36
250;BME280;109;19.806;-70.704;2022-11-20T03:11:36;101598.84;;;24.34;63.52
250;BME280;109;19.806;-70.704;2022-11-20T03:14:16;101605.25;;;24.30;63.22
250;BME280;109;19.806;-70.704;2022-11-20T03:16:42;101612.34;;;24.31;63.29
250;BME280;109;19.806;-70.704;2022-11-20T03:19:29;101614.16;;;24.31;63.11
250;BME280;109;19.806;-70.704;2022-11-20T03:22:03;101614.16;;;24.31;63.12
250;BME280;109;19.806;-70.704;2022-11-20T03:24:44;101614.94;;;24.33;63.16
250;BME280;109;19.806;-70.704;2022-11-20T03:27:10;101610.41;;;24.35;63.38
250;BME280;109;19.806;-70.704;2022-11-20T03:29:50;101606.25;;;24.28;63.14
250;BME280;109;19.806;-70.704;2022-11-20T03:32:16;101608.72;;;24.32;63.15
250;BME280;109;19.806;-70.704;2022-11-20T03:34:56;101604.38;;;24.30;63.10
250;BME280;109;19.806;-70.704;2022-11-20T03:37:36;101601.50;;;24.34;63.14
250;BME280;109;19.806;-70.704;2022-11-20T03:40:02;101599.25;;;24.24;62.81
250;BME280;109;19.806;-70.704;2022-11-20T03:42:50;101593.78;;;24.27;62.89
250;BME280;109;19.806;-70.704;2022-11-20T03:45:24;101583.59;;;24.36;62.77
250;BME280;109;19.806;-70.704;2022-11-20T03:48:04;101591.63;;;24.36;62.52
250;BME280;109;19.806;-70.704;2022-11-20T03:50:30;101591.00;;;24.30;62.44
250;BME280;109;19.806;-70.704;2022-11-20T03:53:10;101587.16;;;24.37;62.66
250;BME280;109;19.806;-70.704;2022-11-20T03:55:36;101583.53;;;24.38;62.62
250;BME280;109;19.806;-70.704;2022-11-20T03:58:24;101592.06;;;24.26;62.52
250;BME280;109;19.806;-70.704;2022-11-20T04:00:58;101596.59;;;24.24;62.51
250;BME280;109;19.806;-70.704;2022-11-20T04:03:40;101596.84;;;24.18;62.34
250;BME280;109;19.806;-70.704;2022-11-20T04:06:33;101593.09;;;24.22;62.24
250;BME280;109;19.806;-70.704;2022-11-20T04:09:09;101582.16;;;24.28;62.27
250;BME280;109;19.806;-70.704;2022-11-20T04:11:37;101589.16;;;24.32;62.14
250;BME280;109;19.806;-70.704;2022-11-20T04:14:18;101585.66;;;24.30;62.09
250;BME280;109;19.806;-70.704;2022-11-20T04:16:44;101576.94;;;24.25;62.05
250;BME280;109;19.806;-70.704;2022-11-20T04:19:24;101568.91;;;24.25;61.77
250;BME280;109;19.806;-70.704;2022-11-20T04:21:50;101568.69;;;24.31;61.98
250;BME280;109;19.806;-70.704;2022-11-20T04:24:30;101571.56;;;24.25;61.67
250;BME280;109;19.806;-70.704;2022-11-20T04:26:56;101556.28;;;24.28;62.00
250;BME280;109;19.806;-70.704;2022-11-20T04:29:37;101563.72;;;24.20;61.86
250;BME280;109;19.806;-70.704;2022-11-20T04:32:03;101558.09;;;24.28;61.85
250;BME280;109;19.806;-70.704;2022-11-20T04:34:43;101550.81;;;24.31;61.68
250;BME280;109;19.806;-70.704;2022-11-20T04:37:16;101548.06;;;24.33;61.57
250;BME280;109;19.806;-70.704;2022-11-20T04:40:02;101551.00;;;24.27;61.38
250;BME280;109;19.806;-70.704;2022-11-20T04:42:42;101549.06;;;24.30;61.46
250;BME280;109;19.806;-70.704;2022-11-20T04:45:08;101544.66;;;24.29;61.08
250;BME280;109;19.806;-70.704;2022-11-20T04:47:49;101556.91;;;24.35;60.99
250;BME280;109;19.806;-70.704;2022-11-20T04:50:15;101545.09;;;24.19;60.88
250;BME280;109;19.806;-70.704;2022-11-20T04:52:55;101528.00;;;24.21;60.84
250;BME280;109;19.806;-70.704;2022-11-20T04:55:21;101542.03;;;24.28;60.88
250;BME280;109;19.806;-70.704;2022-11-20T04:58:01;101540.84;;;24.35;60.69
250;BME280;109;19.806;-70.704;2022-11-20T05:00:34;101540.91;;;24.33;60.79
250;BME280;109;19.806;-70.704;2022-11-20T05:03:16;101532.00;;;24.33;60.69
250;BME280;109;19.806;-70.704;2022-11-20T05:05:42;101544.59;;;24.31;60.73
250;BME280;109;19.806;-70.704;2022-11-20T05:08:22;101537.63;;;24.27;60.37
250;BME280;109;19.806;-70.704;2022-11-20T05:10:48;101541.34;;;24.23;60.25
250;BME280;109;19.806;-70.704;2022-11-20T05:13:28;101534.88;;;24.28;60.35
250;BME280;109;19.806;-70.704;2022-11-20T05:15:54;101534.69;;;24.33;60.26
250;BME280;109;19.806;-70.704;2022-11-20T05:18:35;101524.13;;;24.30;60.17
250;BME280;109;19.806;-70.704;2022-11-20T05:21:02;101543.78;;;24.29;60.28
250;BME280;109;19.806;-70.704;2022-11-20T05:23:42;101540.72;;;24.16;59.85
250;BME280;109;19.806;-70.704;2022-11-20T05:26:14;101539.66;;;24.20;60.20
250;BME280;109;19.806;-70.704;2022-11-20T05:28:54;101540.28;;;24.27;60.08
250;BME280;109;19.806;-70.704;2022-11-20T05:31:22;101541.94;;;24.31;59.61
250;BME280;109;19.806;-70.704;2022-11-20T05:34:03;101542.84;;;24.30;59.61
250;BME280;109;19.806;-70.704;2022-11-20T05:36:30;101541.94;;;24.31;59.55
250;BME280;109;19.806;-70.704;2022-11-20T05:39:17;101546.19;;;24.35;59.84
250;BME280;109;19.806;-70.704;2022-11-20T05:41:50;101539.81;;;24.39;59.80
250;BME280;109;19.806;-70.704;2022-11-20T05:44:54;101542.22;;;24.45;59.90
250;BME280;109;19.806;-70.704;2022-11-20T05:47:34;101539.88;;;24.37;59.70
250;BME280;109;19.806;-70.704;2022-11-20T05:50:01;101532.75;;;24.36;59.86
250;BME280;109;19.806;-70.704;2022-11-20T05:52:42;101533.97;;;24.29;59.71
250;BME280;109;19.806;-70.704;2022-11-20T05:55:08;101524.31;;;24.25;60.04
250;BME280;109;19.806;-70.704;2022-11-20T05:57:48;101526.97;;;24.25;59.82
250;BME280;109;19.806;-70.704;2022-11-20T06:00:14;101529.97;;;24.18;59.91
250;BME280;109;19.806;-70.704;2022-11-20T06:03:02;101522.81;;;24.18;59.49
250;BME280;109;19.806;-70.704;2022-11-20T06:05:35;101514.84;;;24.17;59.74
250;BME280;109;19.806;-70.704;2022-11-20T06:08:16;101516.66;;;24.15;59.78
250;BME280;109;19.806;-70.704;2022-11-20T06:10:42;101504.59;;;24.04;59.89
250;BME280;109;19.806;-70.704;2022-11-20T06:13:22;101506.25;;;24.07;59.97
250;BME280;109;19.806;-70.704;2022-11-20T06:15:50;101499.91;;;24.10;59.92
250;BME280;109;19.806;-70.704;2022-11-20T06:18:30;101491.78;;;24.13;59.68
250;BME280;109;19.806;-70.704;2022-11-20T06:21:10;101481.09;;;24.13;59.97
250;BME280;109;19.806;-70.704;2022-11-20T06:23:52;101477.72;;;24.08;59.75
250;BME280;109;19.806;-70.704;2022-11-20T06:26:21;101489.22;;;24.10;59.99
250;BME280;109;19.806;-70.704;2022-11-20T06:29:02;101480.31;;;24.09;59.94
250;BME280;109;19.806;-70.704;2022-11-20T06:31:28;101471.56;;;24.05;59.92
250;BME280;109;19.806;-70.704;2022-11-20T06:34:10;101476.97;;;24.04;60.13
250;BME280;109;19.806;-70.704;2022-11-20T06:36:36;101461.06;;;24.01;60.19
250;BME280;109;19.806;-70.704;2022-11-20T06:39:17;101459.81;;;24.10;60.21
250;BME280;109;19.806;-70.704;2022-11-20T06:41:50;101459.25;;;24.01;60.24
250;BME280;109;19.806;-70.704;2022-11-20T06:44:30;101463.66;;;24.02;60.10
250;BME280;109;19.806;-70.704;2022-11-20T06:46:56;101461.97;;;24.00;60.44
250;BME280;109;19.806;-70.704;2022-11-20T06:49:36;101466.47;;;23.99;60.45
250;BME280;109;19.806;-70.704;2022-11-20T06:52:04;101467.31;;;24.00;60.27
250;BME280;109;19.806;-70.704;2022-11-20T06:54:45;101461.66;;;24.08;60.22
250;BME280;109;19.806;-70.704;2022-11-20T06:57:11;101462.47;;;24.10;60.21
250;BME280;109;19.806;-70.704;2022-11-20T06:59:51;101460.94;;;24.04;60.16
250;BME280;109;19.806;-70.704;2022-11-20T07:02:31;101452.00;;;24.05;60.37
250;BME280;109;19.806;-70.704;2022-11-20T07:05:04;101455.38;;;24.09;60.28
250;BME280;109;19.806;-70.704;2022-11-20T07:07:44;101447.25;;;24.12;60.35
250;BME280;109;19.806;-70.704;2022-11-20T07:10:10;101456.09;;;24.14;60.42
250;BME280;109;19.806;-70.704;2022-11-20T07:12:52;101450.28;;;24.02;60.44
250;BME280;109;19.806;-70.704;2022-11-20T07:15:20;101449.22;;;24.06;59.96
250;BME280;109;19.806;-70.704;2022-11-20T07:18:01;101447.63;;;24.02;59.98
250;BME280;109;19.806;-70.704;2022-11-20T07:20:28;101442.16;;;24.05;59.82
250;BME280;109;19.806;-70.704;2022-11-20T07:23:08;101440.97;;;24.13;59.81
250;BME280;109;19.806;-70.704;2022-11-20T07:25:34;101432.25;;;24.08;59.75
250;BME280;109;19.806;-70.704;2022-11-20T07:28:15;101435.63;;;24.13;59.94
250;BME280;109;19.806;-70.704;2022-11-20T07:30:41;101434.00;;;24.09;59.97
250;BME280;109;19.806;-70.704;2022-11-20T07:33:22;101431.47;;;24.05;59.77
250;BME280;109;19.806;-70.704;2022-11-20T07:35:48;101430.28;;;24.13;59.90
250;BME280;109;19.806;-70.704;2022-11-20T07:38:28;101431.25;;;24.10;59.56
250;BME280;109;19.806;-70.704;2022-11-20T07:40:58;101428.41;;;24.15;59.74
250;BME280;109;19.806;-70.704;2022-11-20T07:43:46;101431.00;;;24.18;59.87
250;BME280;109;19.806;-70.704;2022-11-20T07:46:19;101418.88;;;24.08;60.03
250;BME280;109;19.806;-70.704;2022-11-20T07:48:59;101409.09;;;24.06;59.91
250;BME280;109;19.806;-70.704;2022-11-20T07:51:25;101409.00;;;24.10;60.07
250;BME280;109;19.806;-70.704;2022-11-20T07:54:05;101410.94;;;24.06;60.01
250;BME280;109;19.806;-70.704;2022-11-20T07:56:31;101410.56;;;24.15;60.21
250;BME280;109;19.806;-70.704;2022-11-20T07:59:12;101412.59;;;24.09;60.51
250;BME280;109;19.806;-70.704;2022-11-20T08:01:39;101409.97;;;24.07;60.61
250;BME280;109;19.806;-70.704;2022-11-20T08:04:19;101405.66;;;24.04;60.37
250;BME280;109;19.806;-70.704;2022-11-20T08:06:45;101409.91;;;24.09;60.41
250;BME280;109;19.806;-70.704;2022-11-20T08:09:26;101408.06;;;24.11;60.42
250;BME280;109;19.806;-70.704;2022-11-20T08:11:52;101406.19;;;24.13;60.44
250;BME280;109;19.806;-70.704;2022-11-20T08:14:51;101407.19;;;24.10;60.59
250;BME280;109;19.806;-70.704;2022-11-20T08:17:31;101400.03;;;24.11;60.68
250;BME280;109;19.806;-70.704;2022-11-20T08:19:57;101404.25;;;24.18;60.70
250;BME280;109;19.806;-70.704;2022-11-20T08:22:37;101411.00;;;24.04;60.89
250;BME280;109;19.806;-70.704;2022-11-20T08:25:03;101413.53;;;24.08;60.87
250;BME280;109;19.806;-70.704;2022-11-20T08:27:44;101415.28;;;24.09;60.85
250;BME280;109;19.806;-70.704;2022-11-20T08:30:11;101415.28;;;24.09;60.64
250;BME280;109;19.806;-70.704;2022-11-20T08:32:52;101417.28;;;24.03;60.84
250;BME280;109;19.806;-70.704;2022-11-20T08:35:23;101418.16;;;24.04;60.86
250;BME280;109;19.806;-70.704;2022-11-20T08:38:04;101423.50;;;24.04;60.82
250;BME280;109;19.806;-70.704;2022-11-20T08:40:31;101426.03;;;24.07;60.65
250;BME280;109;19.806;-70.704;2022-11-20T08:43:18;101427.97;;;24.03;60.79
250;BME280;109;19.806;-70.704;2022-11-20T08:45:59;101430.88;;;23.97;60.72
250;BME280;109;19.806;-70.704;2022-11-20T08:48:40;101424.88;;;23.92;60.55
250;BME280;109;19.806;-70.704;2022-11-20T08:51:07;101428.03;;;24.02;60.26
250;BME280;109;19.806;-70.704;2022-11-20T08:53:47;101436.72;;;23.85;60.78
250;BME280;109;19.806;-70.704;2022-11-20T08:56:14;101440.19;;;23.87;60.95
250;BME280;109;19.806;-70.704;2022-11-20T08:58:54;101432.75;;;23.95;60.88
250;BME280;109;19.806;-70.704;2022-11-20T09:01:21;101442.00;;;23.87;61.19
250;BME280;109;19.806;-70.704;2022-11-20T09:04:02;101454.50;;;23.86;61.27
250;BME280;109;19.806;-70.704;2022-11-20T09:06:30;101451.00;;;23.84;61.40
250;BME280;109;19.806;-70.704;2022-11-20T09:09:10;101453.78;;;23.81;61.69
250;BME280;109;19.806;-70.704;2022-11-20T09:11:37;101456.31;;;23.86;61.93
250;BME280;109;19.806;-70.704;2022-11-20T09:14:17;101450.34;;;23.79;61.96
250;BME280;109;19.806;-70.704;2022-11-20T09:16:45;101447.88;;;23.73;62.15
250;BME280;109;19.806;-70.704;2022-11-20T09:19:26;101448.66;;;23.77;61.86
250;BME280;109;19.806;-70.704;2022-11-20T09:21:53;101444.91;;;23.81;61.86
250;BME280;109;19.806;-70.704;2022-11-20T09:24:33;101444.13;;;23.79;61.97
250;BME280;109;19.806;-70.704;2022-11-20T09:27:02;101450.56;;;23.73;62.02
250;BME280;109;19.806;-70.704;2022-11-20T09:29:43;101447.94;;;23.72;62.03
250;BME280;109;19.806;-70.704;2022-11-20T09:32:23;101455.09;;;23.71;62.43
250;BME280;109;19.806;-70.704;2022-11-20T09:34:56;101451.44;;;23.74;62.31
250;BME280;109;19.806;-70.704;2022-11-20T09:37:36;101460.47;;;23.69;62.19
250;BME280;109;19.806;-70.704;2022-11-20T09:40:02;101465.09;;;23.66;61.76
250;BME280;109;19.806;-70.704;2022-11-20T09:45:48;101466.09;;;23.63;62.13
250;BME280;109;19.806;-70.704;2022-11-20T09:57:05;101471.13;;;23.71;61.99
250;BME280;109;19.806;-70.704;2022-11-20T09:59:55;101474.72;;;23.70;61.79
250;BME280;109;19.806;-70.704;2022-11-20T10:08:53;101482.41;;;23.79;61.25
250;BME280;109;19.806;-70.704;2022-11-20T10:14:45;101472.81;;;23.74;61.33
250;BME280;109;19.806;-70.704;2022-11-20T10:20:50;101478.22;;;23.72;61.46
250;BME280;109;19.806;-70.704;2022-11-20T10:46:58;101499.59;;;23.95;60.66
250;BME280;109;19.806;-70.704;2022-11-20T10:49:40;101505.94;;;23.93;60.54
250;BME280;109;19.806;-70.704;2022-11-20T11:00:33;101520.25;;;23.92;60.62
250;BME280;109;19.806;-70.704;2022-11-20T11:02:59;101505.75;;;23.97;60.48
250;BME280;109;19.806;-70.704;2022-11-20T11:05:45;101515.63;;;23.95;60.44
250;BME280;109;19.806;-70.704;2022-11-20T11:08:17;101518.19;;;23.98;60.41
250;BME280;109;19.806;-70.704;2022-11-20T11:13:48;101526.00;;;24.04;60.31
250;BME280;109;19.806;-70.704;2022-11-20T11:16:27;101520.31;;;24.12;60.68
250;BME280;109;19.806;-70.704;2022-11-20T11:19:10;101522.59;;;24.23;60.19
250;BME280;109;19.806;-70.704;2022-11-20T11:21:38;101521.94;;;24.18;60.29
250;BME280;109;19.806;-70.704;2022-11-20T11:24:22;101534.44;;;24.17;60.22
250;BME280;109;19.806;-70.704;2022-11-20T11:26:59;101539.00;;;24.14;60.68
250;BME280;109;19.806;-70.704;2022-11-20T11:29:30;101531.78;;;24.16;60.95
250;BME280;109;19.806;-70.704;2022-11-20T11:32:18;101544.81;;;24.25;60.71
250;BME280;109;19.806;-70.704;2022-11-20T11:35:02;101537.19;;;24.14;60.27
250;BME280;109;19.806;-70.704;2022-11-20T11:37:39;101542.31;;;24.20;60.30
250;BME280;109;19.806;-70.704;2022-11-20T11:40:08;101539.25;;;24.31;60.19
250;BME280;109;19.806;-70.704;2022-11-20T11:42:47;101553.72;;;24.25;60.22
250;BME280;109;19.806;-70.704;2022-11-20T11:45:16;101551.09;;;24.24;60.02
250;BME280;109;19.806;-70.704;2022-11-20T11:47:47;101547.56;;;24.45;60.17
250;BME280;109;19.806;-70.704;2022-11-20T11:50:20;101547.28;;;24.53;60.38
250;BME280;109;19.806;-70.704;2022-11-20T11:52:57;101544.22;;;24.62;59.90
250;BME280;109;19.806;-70.704;2022-11-20T11:58:47;101558.09;;;24.71;59.55
250;BME280;109;19.806;-70.704;2022-11-20T12:04:14;101557.72;;;24.82;59.83
250;BME280;109;19.806;-70.704;2022-11-20T12:06:47;101564.88;;;24.82;59.44
250;BME280;109;19.806;-70.704;2022-11-20T12:09:18;101573.50;;;24.88;59.66
250;BME280;109;19.806;-70.704;2022-11-20T12:12:18;101564.81;;;25.03;59.17
250;BME280;109;19.806;-70.704;2022-11-20T12:14:49;101575.09;;;25.14;59.10
250;BME280;109;19.806;-70.704;2022-11-20T12:17:18;101584.56;;;25.23;59.04
250;BME280;109;19.806;-70.704;2022-11-20T12:19:45;101579.03;;;25.26;58.88
250;BME280;109;19.806;-70.704;2022-11-20T12:38:41;101594.00;;;25.92;58.37
250;BME280;109;19.806;-70.704;2022-11-20T12:42:00;101596.47;;;25.76;58.13
250;BME280;109;19.806;-70.704;2022-11-20T12:52:56;101603.19;;;25.66;58.21
250;BME280;109;19.806;-70.704;2022-11-20T12:55:32;101604.09;;;25.87;57.71
250;BME280;109;19.806;-70.704;2022-11-20T12:58:29;101613.84;;;26.08;57.12
250;BME280;109;19.806;-70.704;2022-11-20T13:01:16;101607.75;;;26.24;57.65
250;BME280;109;19.806;-70.704;2022-11-20T13:07:05;101616.72;;;26.43;56.93
250;BME280;109;19.806;-70.704;2022-11-20T13:09:40;101617.84;;;26.19;57.17
250;BME280;109;19.806;-70.704;2022-11-20T13:15:35;101622.44;;;26.54;57.52
250;BME280;109;19.806;-70.704;2022-11-20T13:17:59;101630.75;;;26.67;57.32
250;BME280;109;19.806;-70.704;2022-11-20T13:20:27;101630.91;;;26.82;56.91
250;BME280;109;19.806;-70.704;2022-11-20T13:22:56;101624.88;;;26.96;56.57
250;BME280;109;19.806;-70.704;2022-11-20T13:25:35;101629.81;;;26.86;56.24
250;BME280;109;19.806;-70.704;2022-11-20T13:30:49;101637.75;;;26.71;56.33
250;BME280;109;19.806;-70.704;2022-11-20T13:33:29;101637.06;;;26.84;56.21
250;BME280;109;19.806;-70.704;2022-11-20T13:36:01;101641.00;;;26.96;56.51
250;BME280;109;19.806;-70.704;2022-11-20T13:38:46;101632.34;;;26.90;55.49
250;BME280;109;19.806;-70.704;2022-11-20T13:41:28;101639.84;;;27.02;55.87
250;BME280;109;19.806;-70.704;2022-11-20T13:44:34;101635.41;;;27.01;55.92
250;BME280;109;19.806;-70.704;2022-11-20T13:47:03;101635.09;;;27.07;55.99
250;BME280;109;19.806;-70.704;2022-11-20T13:49:33;101629.88;;;27.04;56.05
250;BME280;109;19.806;-70.704;2022-11-20T14:00:23;101633.16;;;27.45;56.14
250;BME280;109;19.806;-70.704;2022-11-20T14:03:10;101625.47;;;27.72;55.92
250;BME280;109;19.806;-70.704;2022-11-20T14:05:50;101630.41;;;27.46;55.05
250;BME280;109;19.806;-70.704;2022-11-20T14:08:39;101630.81;;;27.56;55.58
250;BME280;109;19.806;-70.704;2022-11-20T14:16:36;101627.38;;;27.35;55.63
250;BME280;109;19.806;-70.704;2022-11-20T14:21:49;101627.06;;;26.69;57.16
250;BME280;109;19.806;-70.704;2022-11-20T14:24:23;101624.91;;;26.77;57.64
250;BME280;109;19.806;-70.704;2022-11-20T14:26:51;101632.00;;;26.78;57.19
250;BME280;109;19.806;-70.704;2022-11-20T14:29:21;101622.19;;;26.96;57.47
250;BME280;109;19.806;-70.704;2022-11-20T14:31:51;101619.84;;;27.07;56.41
250;BME280;109;19.806;-70.704;2022-11-20T14:34:22;101621.53;;;26.91;56.04
250;BME280;109;19.806;-70.704;2022-11-20T14:36:53;101617.47;;;27.18;57.01
250;BME280;109;19.806;-70.704;2022-11-20T14:39:34;101609.72;;;27.12;56.47
250;BME280;109;19.806;-70.704;2022-11-20T14:42:01;101606.44;;;26.89;55.91
250;BME280;109;19.806;-70.704;2022-11-20T14:44:31;101609.75;;;27.30;56.01
250;BME280;109;19.806;-70.704;2022-11-20T14:47:00;101601.44;;;27.34;56.03
250;BME280;109;19.806;-70.704;2022-11-20T14:49:30;101603.38;;;27.49;55.29
250;BME280;109;19.806;-70.704;2022-11-20T14:52:00;101591.78;;;27.82;54.69
250;BME280;109;19.806;-70.704;2022-11-20T14:54:27;101598.13;;;27.46;55.23
250;BME280;109;19.806;-70.704;2022-11-20T14:59:24;101590.88;;;27.99;53.92
250;BME280;109;19.806;-70.704;2022-11-20T15:01:56;101595.22;;;27.84;53.77
250;BME280;109;19.806;-70.704;2022-11-20T15:04:24;101587.50;;;27.78;54.07
250;BME280;109;19.806;-70.704;2022-11-20T15:06:52;101590.56;;;28.05;55.01
250;BME280;109;19.806;-70.704;2022-11-20T15:09:19;101590.19;;;28.11;54.65
250;BME280;109;19.806;-70.704;2022-11-20T15:11:58;101585.19;;;28.20;54.01
250;BME280;109;19.806;-70.704;2022-11-20T15:14:26;101584.50;;;28.17;53.73
250;BME280;109;19.806;-70.704;2022-11-20T15:16:53;101579.50;;;28.58;54.00
250;BME280;109;19.806;-70.704;2022-11-20T15:19:25;101574.88;;;28.44;54.04
250;BME280;109;19.806;-70.704;2022-11-20T15:21:52;101571.81;;;28.35;54.17
250;BME280;109;19.806;-70.704;2022-11-20T15:24:19;101575.69;;;28.46;56.05
250;BME280;109;19.806;-70.704;2022-11-20T15:26:46;101577.81;;;27.91;56.92
250;BME280;109;19.806;-70.704;2022-11-20T15:29:15;101567.28;;;27.19;57.80
250;BME280;109;19.806;-70.704;2022-11-20T15:31:45;101567.84;;;27.26;58.39
250;BME280;109;19.806;-70.704;2022-11-20T15:34:13;101564.56;;;27.71;57.84
250;BME280;109;19.806;-70.704;2022-11-20T15:36:40;101565.03;;;27.79;57.64
250;BME280;109;19.806;-70.704;2022-11-20T15:39:07;101551.69;;;27.77;57.47
250;BME280;109;19.806;-70.704;2022-11-20T15:41:37;101555.50;;;27.89;57.75
250;BME280;109;19.806;-70.704;2022-11-20T15:44:04;101540.47;;;28.02;58.35
250;BME280;109;19.806;-70.704;2022-11-20T15:46:32;101534.69;;;27.92;58.56
250;BME280;109;19.806;-70.704;2022-11-20T15:49:03;101525.69;;;27.94;57.75
250;BME280;109;19.806;-70.704;2022-11-20T15:53:58;101521.66;;;27.35;57.59
250;BME280;109;19.806;-70.704;2022-11-20T15:56:25;101515.47;;;27.67;56.87